Aeroporto :







RITROVATECI SU...

 
LOGIN :

Iscrizione | Disclaimer

   EN    FR    IT 

 









Sommario :    VFR   VFR Marginale   IFR   IFR Intensivo   IFR Molto Intensivo
Visibilità : 
Base nubi : 
>= 8 km
>= 3000ft
5 / 8 km
1000 / 3000 ft
1500m / 5 km
500 / 1000 ft
800 / 1500m
200 / 500 ft
< 800m
< 200 ft
Simboli :   Temporali  Nebbia  Neve Forte  Precipitazioni Forti  Vento > 20 kt






- Altitudine del aeroporto : 60 ft
- Codice IATA : AUA


TNCA - Reina beatrix It.

ULTIMO METAR :
  • 271600Z 09021KT 9999 FEW018 32/25 Q1011 NOSIG

METARs OBSOLETI :
  • 271500Z 09020KT 9999 FEW017 31/25 Q1011 NOSIG
  • 271400Z 09020KT 9999 FEW017 30/25 Q1011 NOSIG

TAF TAF TNCA
Valido dal 27 a 12 ore il 28 a 12 ore UTC


271102Z 2712/2812 10020KT 9999 SCT020
FIR TNCF / America del Nord



MetMap, La meteo Aeronautica in un colpo d'occhio ! - Copyright ORBIFLY Dicembre 2007 - Disclaimer

ORBIFLY MET'MAP TEAM :

Programmazione e sviluppo : Alexandra Zaïnal
Concezione : Baudouin d'Aumeries
Aiuto per la programmazione : Marc-Olivier Méhu
Supporto tecnico e logistico : Manuel Goepfert
Aiuto per la traduzione : Arnaldo La Scala

Contatto : metmap@orbifly.com




FONTI E CREDITI :

   NOAA